sensor_id;sensor_type;location;lat;lon;timestamp;P1;durP1;ratioP1;P2;durP2;ratioP2
18905;SDS011;9585;51.018;4.282;2023-07-28T00:01:05;5.70;;;4.22;;
18905;SDS011;9585;51.018;4.282;2023-07-28T00:03:34;4.80;;;4.22;;
18905;SDS011;9585;51.018;4.282;2023-07-28T00:06:02;5.03;;;4.22;;
18905;SDS011;9585;51.018;4.282;2023-07-28T00:08:30;4.85;;;4.45;;
18905;SDS011;9585;51.018;4.282;2023-07-28T00:10:58;4.45;;;3.88;;
18905;SDS011;9585;51.018;4.282;2023-07-28T00:13:32;4.47;;;3.80;;
18905;SDS011;9585;51.018;4.282;2023-07-28T00:16:03;4.70;;;4.30;;
18905;SDS011;9585;51.018;4.282;2023-07-28T00:18:31;5.60;;;4.40;;
18905;SDS011;9585;51.018;4.282;2023-07-28T00:21:00;5.50;;;3.70;;
18905;SDS011;9585;51.018;4.282;2023-07-28T00:23:36;8.73;;;3.88;;
18905;SDS011;9585;51.018;4.282;2023-07-28T00:26:07;4.05;;;3.63;;
18905;SDS011;9585;51.018;4.282;2023-07-28T00:28:44;3.88;;;3.58;;
18905;SDS011;9585;51.018;4.282;2023-07-28T00:31:12;3.72;;;3.42;;
18905;SDS011;9585;51.018;4.282;2023-07-28T00:33:40;4.45;;;3.53;;
18905;SDS011;9585;51.018;4.282;2023-07-28T00:36:08;3.75;;;3.45;;
18905;SDS011;9585;51.018;4.282;2023-07-28T00:38:37;4.22;;;3.80;;
18905;SDS011;9585;51.018;4.282;2023-07-28T00:41:07;3.95;;;3.20;;
18905;SDS011;9585;51.018;4.282;2023-07-28T00:43:35;4.35;;;3.33;;
18905;SDS011;9585;51.018;4.282;2023-07-28T00:46:05;4.90;;;2.95;;
18905;SDS011;9585;51.018;4.282;2023-07-28T00:48:33;3.70;;;3.03;;
18905;SDS011;9585;51.018;4.282;2023-07-28T00:51:03;4.05;;;2.75;;
18905;SDS011;9585;51.018;4.282;2023-07-28T00:53:34;3.58;;;2.80;;
18905;SDS011;9585;51.018;4.282;2023-07-28T00:56:02;2.63;;;2.40;;
18905;SDS011;9585;51.018;4.282;2023-07-28T00:58:31;3.40;;;2.65;;
18905;SDS011;9585;51.018;4.282;2023-07-28T01:00:59;2.60;;;2.30;;
18905;SDS011;9585;51.018;4.282;2023-07-28T01:03:28;2.90;;;2.60;;
18905;SDS011;9585;51.018;4.282;2023-07-28T01:06:03;2.58;;;2.38;;
18905;SDS011;9585;51.018;4.282;2023-07-28T01:08:42;3.40;;;2.70;;
18905;SDS011;9585;51.018;4.282;2023-07-28T01:11:16;2.90;;;2.42;;
18905;SDS011;9585;51.018;4.282;2023-07-28T01:13:44;2.70;;;2.38;;
18905;SDS011;9585;51.018;4.282;2023-07-28T01:16:12;2.60;;;2.38;;
18905;SDS011;9585;51.018;4.282;2023-07-28T01:18:43;3.38;;;2.53;;
18905;SDS011;9585;51.018;4.282;2023-07-28T01:21:15;2.60;;;2.33;;
18905;SDS011;9585;51.018;4.282;2023-07-28T01:26:45;2.67;;;2.25;;
18905;SDS011;9585;51.018;4.282;2023-07-28T01:29:15;2.75;;;2.53;;
18905;SDS011;9585;51.018;4.282;2023-07-28T01:31:46;3.25;;;2.60;;
18905;SDS011;9585;51.018;4.282;2023-07-28T01:34:14;2.90;;;2.50;;
18905;SDS011;9585;51.018;4.282;2023-07-28T01:36:42;5.10;;;2.67;;
18905;SDS011;9585;51.018;4.282;2023-07-28T01:39:11;4.07;;;2.55;;
18905;SDS011;9585;51.018;4.282;2023-07-28T01:41:38;3.65;;;2.83;;
18905;SDS011;9585;51.018;4.282;2023-07-28T01:44:11;2.58;;;2.38;;
18905;SDS011;9585;51.018;4.282;2023-07-28T01:46:39;2.72;;;2.50;;
18905;SDS011;9585;51.018;4.282;2023-07-28T01:49:07;4.10;;;2.53;;
18905;SDS011;9585;51.018;4.282;2023-07-28T01:51:41;3.97;;;2.80;;
18905;SDS011;9585;51.018;4.282;2023-07-28T01:54:13;3.13;;;2.83;;
18905;SDS011;9585;51.018;4.282;2023-07-28T01:56:46;3.20;;;2.72;;
18905;SDS011;9585;51.018;4.282;2023-07-28T01:59:29;3.00;;;2.67;;
18905;SDS011;9585;51.018;4.282;2023-07-28T02:02:02;2.67;;;2.47;;
18905;SDS011;9585;51.018;4.282;2023-07-28T02:04:31;3.17;;;2.47;;
18905;SDS011;9585;51.018;4.282;2023-07-28T02:07:08;2.95;;;2.63;;
18905;SDS011;9585;51.018;4.282;2023-07-28T02:09:47;3.92;;;2.95;;
18905;SDS011;9585;51.018;4.282;2023-07-28T02:12:18;4.32;;;2.47;;
18905;SDS011;9585;51.018;4.282;2023-07-28T02:14:57;2.95;;;2.50;;
18905;SDS011;9585;51.018;4.282;2023-07-28T02:17:28;2.83;;;2.53;;
18905;SDS011;9585;51.018;4.282;2023-07-28T02:19:57;3.70;;;2.15;;
18905;SDS011;9585;51.018;4.282;2023-07-28T02:22:30;2.53;;;1.90;;
18905;SDS011;9585;51.018;4.282;2023-07-28T02:25:28;2.80;;;2.00;;
18905;SDS011;9585;51.018;4.282;2023-07-28T02:27:56;2.22;;;2.00;;
18905;SDS011;9585;51.018;4.282;2023-07-28T02:30:26;1.95;;;1.85;;
18905;SDS011;9585;51.018;4.282;2023-07-28T02:32:58;2.53;;;1.88;;
18905;SDS011;9585;51.018;4.282;2023-07-28T02:35:26;2.72;;;1.90;;
18905;SDS011;9585;51.018;4.282;2023-07-28T02:37:56;1.70;;;1.60;;
18905;SDS011;9585;51.018;4.282;2023-07-28T02:40:25;2.00;;;1.33;;
18905;SDS011;9585;51.018;4.282;2023-07-28T02:42:54;2.00;;;1.88;;
18905;SDS011;9585;51.018;4.282;2023-07-28T02:45:22;1.92;;;1.77;;
18905;SDS011;9585;51.018;4.282;2023-07-28T02:48:02;1.70;;;1.60;;
18905;SDS011;9585;51.018;4.282;2023-07-28T02:50:30;2.13;;;1.73;;
18905;SDS011;9585;51.018;4.282;2023-07-28T02:52:58;2.25;;;2.10;;
18905;SDS011;9585;51.018;4.282;2023-07-28T02:55:26;2.85;;;2.55;;
18905;SDS011;9585;51.018;4.282;2023-07-28T02:57:54;2.85;;;2.60;;
18905;SDS011;9585;51.018;4.282;2023-07-28T03:00:25;3.58;;;2.80;;
18905;SDS011;9585;51.018;4.282;2023-07-28T03:02:54;4.35;;;3.17;;
18905;SDS011;9585;51.018;4.282;2023-07-28T03:05:21;3.03;;;2.72;;
18905;SDS011;9585;51.018;4.282;2023-07-28T03:07:49;2.72;;;2.53;;
18905;SDS011;9585;51.018;4.282;2023-07-28T03:10:17;2.60;;;2.40;;
18905;SDS011;9585;51.018;4.282;2023-07-28T03:12:44;3.03;;;2.40;;
18905;SDS011;9585;51.018;4.282;2023-07-28T03:15:12;4.57;;;2.60;;
18905;SDS011;9585;51.018;4.282;2023-07-28T03:17:40;2.97;;;2.67;;
18905;SDS011;9585;51.018;4.282;2023-07-28T03:20:10;3.70;;;2.78;;
18905;SDS011;9585;51.018;4.282;2023-07-28T03:22:39;3.53;;;2.80;;
18905;SDS011;9585;51.018;4.282;2023-07-28T03:25:06;2.47;;;2.20;;
18905;SDS011;9585;51.018;4.282;2023-07-28T03:27:34;2.50;;;2.30;;
18905;SDS011;9585;51.018;4.282;2023-07-28T03:30:02;4.60;;;2.97;;
18905;SDS011;9585;51.018;4.282;2023-07-28T03:32:32;2.80;;;2.60;;
18905;SDS011;9585;51.018;4.282;2023-07-28T03:34:59;2.47;;;2.28;;
18905;SDS011;9585;51.018;4.282;2023-07-28T03:37:28;2.53;;;2.33;;
18905;SDS011;9585;51.018;4.282;2023-07-28T03:39:56;4.00;;;2.60;;
18905;SDS011;9585;51.018;4.282;2023-07-28T03:42:25;2.78;;;2.42;;
18905;SDS011;9585;51.018;4.282;2023-07-28T03:44:54;2.55;;;2.35;;
18905;SDS011;9585;51.018;4.282;2023-07-28T03:47:22;2.10;;;1.90;;
18905;SDS011;9585;51.018;4.282;2023-07-28T03:49:50;3.78;;;1.92;;
18905;SDS011;9585;51.018;4.282;2023-07-28T03:52:17;2.10;;;1.90;;
18905;SDS011;9585;51.018;4.282;2023-07-28T03:54:46;1.98;;;1.83;;
18905;SDS011;9585;51.018;4.282;2023-07-28T03:57:14;1.85;;;1.75;;
18905;SDS011;9585;51.018;4.282;2023-07-28T03:59:41;2.40;;;2.20;;
18905;SDS011;9585;51.018;4.282;2023-07-28T04:02:09;2.28;;;2.10;;
18905;SDS011;9585;51.018;4.282;2023-07-28T04:04:36;2.13;;;2.00;;
18905;SDS011;9585;51.018;4.282;2023-07-28T04:07:05;2.13;;;1.73;;
18905;SDS011;9585;51.018;4.282;2023-07-28T04:09:33;2.70;;;2.47;;
18905;SDS011;9585;51.018;4.282;2023-07-28T04:12:02;3.28;;;1.98;;
18905;SDS011;9585;51.018;4.282;2023-07-28T04:14:30;2.03;;;1.83;;
18905;SDS011;9585;51.018;4.282;2023-07-28T04:16:57;2.40;;;2.13;;
18905;SDS011;9585;51.018;4.282;2023-07-28T04:19:25;2.30;;;2.10;;
18905;SDS011;9585;51.018;4.282;2023-07-28T04:21:54;3.10;;;2.20;;
18905;SDS011;9585;51.018;4.282;2023-07-28T04:24:22;1.95;;;1.85;;
18905;SDS011;9585;51.018;4.282;2023-07-28T04:26:51;2.22;;;2.03;;
18905;SDS011;9585;51.018;4.282;2023-07-28T04:29:22;1.90;;;1.80;;
18905;SDS011;9585;51.018;4.282;2023-07-28T04:31:49;1.90;;;1.80;;
18905;SDS011;9585;51.018;4.282;2023-07-28T04:34:17;2.35;;;2.00;;
18905;SDS011;9585;51.018;4.282;2023-07-28T04:36:45;2.40;;;1.63;;
18905;SDS011;9585;51.018;4.282;2023-07-28T04:39:13;2.88;;;2.13;;
18905;SDS011;9585;51.018;4.282;2023-07-28T04:41:41;2.20;;;2.10;;
18905;SDS011;9585;51.018;4.282;2023-07-28T04:44:09;2.78;;;2.28;;
18905;SDS011;9585;51.018;4.282;2023-07-28T04:46:42;2.70;;;2.50;;
18905;SDS011;9585;51.018;4.282;2023-07-28T04:49:14;2.30;;;2.10;;
18905;SDS011;9585;51.018;4.282;2023-07-28T04:51:42;3.47;;;2.20;;
18905;SDS011;9585;51.018;4.282;2023-07-28T04:54:10;2.65;;;2.45;;
18905;SDS011;9585;51.018;4.282;2023-07-28T04:56:39;4.40;;;2.45;;
18905;SDS011;9585;51.018;4.282;2023-07-28T04:59:08;1.98;;;1.88;;
18905;SDS011;9585;51.018;4.282;2023-07-28T05:01:35;2.28;;;2.08;;
18905;SDS011;9585;51.018;4.282;2023-07-28T05:04:05;2.35;;;2.15;;
18905;SDS011;9585;51.018;4.282;2023-07-28T05:06:33;2.50;;;2.08;;
18905;SDS011;9585;51.018;4.282;2023-07-28T05:09:01;2.78;;;2.03;;
18905;SDS011;9585;51.018;4.282;2023-07-28T05:11:30;2.95;;;2.08;;
18905;SDS011;9585;51.018;4.282;2023-07-28T05:13:57;2.22;;;2.08;;
18905;SDS011;9585;51.018;4.282;2023-07-28T05:16:26;2.85;;;2.08;;
18905;SDS011;9585;51.018;4.282;2023-07-28T05:18:53;2.85;;;2.63;;
18905;SDS011;9585;51.018;4.282;2023-07-28T05:21:23;2.40;;;2.20;;
18905;SDS011;9585;51.018;4.282;2023-07-28T05:23:51;3.45;;;2.63;;
18905;SDS011;9585;51.018;4.282;2023-07-28T05:26:21;3.63;;;2.70;;
18905;SDS011;9585;51.018;4.282;2023-07-28T05:28:52;5.20;;;3.00;;
18905;SDS011;9585;51.018;4.282;2023-07-28T05:31:25;3.38;;;3.08;;
18905;SDS011;9585;51.018;4.282;2023-07-28T05:33:53;3.15;;;2.83;;
18905;SDS011;9585;51.018;4.282;2023-07-28T05:36:27;5.47;;;3.28;;
18905;SDS011;9585;51.018;4.282;2023-07-28T05:38:57;3.30;;;3.00;;
18905;SDS011;9585;51.018;4.282;2023-07-28T05:41:24;4.80;;;2.90;;
18905;SDS011;9585;51.018;4.282;2023-07-28T05:43:52;3.72;;;3.17;;
18905;SDS011;9585;51.018;4.282;2023-07-28T05:46:20;3.92;;;3.50;;
18905;SDS011;9585;51.018;4.282;2023-07-28T05:48:57;3.17;;;2.88;;
18905;SDS011;9585;51.018;4.282;2023-07-28T05:51:26;3.95;;;2.92;;
18905;SDS011;9585;51.018;4.282;2023-07-28T05:53:56;4.32;;;3.30;;
18905;SDS011;9585;51.018;4.282;2023-07-28T05:56:24;3.30;;;2.95;;
18905;SDS011;9585;51.018;4.282;2023-07-28T05:58:51;3.25;;;2.63;;
18905;SDS011;9585;51.018;4.282;2023-07-28T06:01:19;3.88;;;2.90;;
18905;SDS011;9585;51.018;4.282;2023-07-28T06:03:47;3.22;;;2.70;;
18905;SDS011;9585;51.018;4.282;2023-07-28T06:06:17;2.65;;;2.30;;
18905;SDS011;9585;51.018;4.282;2023-07-28T06:08:47;3.97;;;2.30;;
18905;SDS011;9585;51.018;4.282;2023-07-28T06:11:15;2.30;;;1.92;;
18905;SDS011;9585;51.018;4.282;2023-07-28T06:13:45;1.90;;;1.80;;
18905;SDS011;9585;51.018;4.282;2023-07-28T06:16:12;2.40;;;1.90;;
18905;SDS011;9585;51.018;4.282;2023-07-28T06:18:40;1.60;;;1.50;;
18905;SDS011;9585;51.018;4.282;2023-07-28T06:21:08;1.75;;;1.40;;
18905;SDS011;9585;51.018;4.282;2023-07-28T06:23:36;2.38;;;1.45;;
18905;SDS011;9585;51.018;4.282;2023-07-28T06:26:05;2.20;;;1.35;;
18905;SDS011;9585;51.018;4.282;2023-07-28T06:28:33;1.50;;;1.10;;
18905;SDS011;9585;51.018;4.282;2023-07-28T06:31:02;2.00;;;1.38;;
18905;SDS011;9585;51.018;4.282;2023-07-28T06:33:32;1.65;;;0.90;;
18905;SDS011;9585;51.018;4.282;2023-07-28T06:36:01;0.82;;;0.73;;
18905;SDS011;9585;51.018;4.282;2023-07-28T06:38:32;1.38;;;0.90;;
18905;SDS011;9585;51.018;4.282;2023-07-28T06:41:00;1.25;;;0.90;;
18905;SDS011;9585;51.018;4.282;2023-07-28T06:43:30;0.77;;;0.70;;
18905;SDS011;9585;51.018;4.282;2023-07-28T06:46:01;0.70;;;0.60;;
18905;SDS011;9585;51.018;4.282;2023-07-28T06:48:29;0.60;;;0.52;;
18905;SDS011;9585;51.018;4.282;2023-07-28T06:50:57;0.68;;;0.50;;
18905;SDS011;9585;51.018;4.282;2023-07-28T06:53:25;0.60;;;0.60;;
18905;SDS011;9585;51.018;4.282;2023-07-28T06:55:52;0.60;;;0.60;;
18905;SDS011;9585;51.018;4.282;2023-07-28T06:58:20;1.25;;;0.60;;
18905;SDS011;9585;51.018;4.282;2023-07-28T07:00:50;2.13;;;0.68;;
18905;SDS011;9585;51.018;4.282;2023-07-28T07:03:19;0.50;;;0.50;;
18905;SDS011;9585;51.018;4.282;2023-07-28T07:05:47;0.75;;;0.40;;
18905;SDS011;9585;51.018;4.282;2023-07-28T07:08:15;1.77;;;0.40;;
18905;SDS011;9585;51.018;4.282;2023-07-28T07:10:49;1.23;;;0.40;;
18905;SDS011;9585;51.018;4.282;2023-07-28T07:13:17;0.50;;;0.50;;
18905;SDS011;9585;51.018;4.282;2023-07-28T07:15:45;0.70;;;0.45;;
18905;SDS011;9585;51.018;4.282;2023-07-28T07:18:14;1.02;;;0.47;;
18905;SDS011;9585;51.018;4.282;2023-07-28T07:20:42;1.13;;;0.45;;
18905;SDS011;9585;51.018;4.282;2023-07-28T07:23:10;0.90;;;0.40;;
18905;SDS011;9585;51.018;4.282;2023-07-28T07:25:40;0.90;;;0.38;;
18905;SDS011;9585;51.018;4.282;2023-07-28T07:28:08;1.83;;;0.50;;
18905;SDS011;9585;51.018;4.282;2023-07-28T07:30:36;1.30;;;0.40;;
18905;SDS011;9585;51.018;4.282;2023-07-28T07:33:05;0.70;;;0.40;;
18905;SDS011;9585;51.018;4.282;2023-07-28T07:35:37;0.85;;;0.40;;
18905;SDS011;9585;51.018;4.282;2023-07-28T07:38:05;0.35;;;0.35;;
18905;SDS011;9585;51.018;4.282;2023-07-28T07:40:37;0.70;;;0.30;;
18905;SDS011;9585;51.018;4.282;2023-07-28T07:43:05;1.42;;;0.40;;
18905;SDS011;9585;51.018;4.282;2023-07-28T07:45:36;1.00;;;0.50;;
18905;SDS011;9585;51.018;4.282;2023-07-28T07:48:12;0.60;;;0.40;;
18905;SDS011;9585;51.018;4.282;2023-07-28T07:50:46;0.93;;;0.47;;
18905;SDS011;9585;51.018;4.282;2023-07-28T07:53:17;0.73;;;0.40;;
18905;SDS011;9585;51.018;4.282;2023-07-28T07:55:45;0.98;;;0.60;;
18905;SDS011;9585;51.018;4.282;2023-07-28T07:58:13;0.70;;;0.43;;
18905;SDS011;9585;51.018;4.282;2023-07-28T08:00:41;0.63;;;0.50;;
18905;SDS011;9585;51.018;4.282;2023-07-28T08:03:09;1.92;;;0.70;;
18905;SDS011;9585;51.018;4.282;2023-07-28T08:05:38;2.58;;;0.60;;
18905;SDS011;9585;51.018;4.282;2023-07-28T08:10:57;1.08;;;0.57;;
18905;SDS011;9585;51.018;4.282;2023-07-28T08:13:26;1.77;;;0.80;;
18905;SDS011;9585;51.018;4.282;2023-07-28T08:16:16;1.23;;;0.60;;
18905;SDS011;9585;51.018;4.282;2023-07-28T08:18:56;1.50;;;0.70;;
18905;SDS011;9585;51.018;4.282;2023-07-28T08:21:25;2.17;;;0.95;;
18905;SDS011;9585;51.018;4.282;2023-07-28T08:24:09;1.33;;;0.70;;
18905;SDS011;9585;51.018;4.282;2023-07-28T08:26:45;0.77;;;0.68;;
18905;SDS011;9585;51.018;4.282;2023-07-28T08:29:30;1.88;;;1.00;;
18905;SDS011;9585;51.018;4.282;2023-07-28T08:32:00;1.50;;;1.02;;
18905;SDS011;9585;51.018;4.282;2023-07-28T08:34:28;1.30;;;1.00;;
18905;SDS011;9585;51.018;4.282;2023-07-28T08:36:58;1.65;;;0.85;;
18905;SDS011;9585;51.018;4.282;2023-07-28T08:39:29;2.05;;;1.08;;
18905;SDS011;9585;51.018;4.282;2023-07-28T08:41:57;0.95;;;0.68;;
18905;SDS011;9585;51.018;4.282;2023-07-28T08:44:27;1.67;;;0.90;;
18905;SDS011;9585;51.018;4.282;2023-07-28T08:47:03;1.42;;;0.70;;
18905;SDS011;9585;51.018;4.282;2023-07-28T08:49:32;0.82;;;0.75;;
18905;SDS011;9585;51.018;4.282;2023-07-28T08:52:04;0.93;;;0.70;;
18905;SDS011;9585;51.018;4.282;2023-07-28T08:54:49;3.17;;;0.80;;
18905;SDS011;9585;51.018;4.282;2023-07-28T08:57:18;1.35;;;0.77;;
18905;SDS011;9585;51.018;4.282;2023-07-28T08:59:54;1.17;;;0.63;;
18905;SDS011;9585;51.018;4.282;2023-07-28T09:02:25;0.93;;;0.70;;
18905;SDS011;9585;51.018;4.282;2023-07-28T09:04:57;1.00;;;0.65;;
18905;SDS011;9585;51.018;4.282;2023-07-28T09:07:36;1.35;;;0.70;;
18905;SDS011;9585;51.018;4.282;2023-07-28T09:10:06;2.42;;;0.88;;
18905;SDS011;9585;51.018;4.282;2023-07-28T09:12:45;1.17;;;0.70;;
18905;SDS011;9585;51.018;4.282;2023-07-28T09:15:14;0.77;;;0.70;;
18905;SDS011;9585;51.018;4.282;2023-07-28T09:17:43;1.77;;;0.80;;
18905;SDS011;9585;51.018;4.282;2023-07-28T09:20:13;1.45;;;0.70;;
18905;SDS011;9585;51.018;4.282;2023-07-28T09:22:42;0.75;;;0.70;;
18905;SDS011;9585;51.018;4.282;2023-07-28T09:25:14;0.80;;;0.70;;
18905;SDS011;9585;51.018;4.282;2023-07-28T09:27:49;0.75;;;0.50;;
18905;SDS011;9585;51.018;4.282;2023-07-28T09:30:18;1.00;;;0.60;;
18905;SDS011;9585;51.018;4.282;2023-07-28T09:32:47;0.85;;;0.60;;
18905;SDS011;9585;51.018;4.282;2023-07-28T09:35:16;1.73;;;0.47;;
18905;SDS011;9585;51.018;4.282;2023-07-28T09:37:44;2.47;;;0.50;;
18905;SDS011;9585;51.018;4.282;2023-07-28T09:40:18;0.98;;;0.80;;
18905;SDS011;9585;51.018;4.282;2023-07-28T09:42:50;1.05;;;0.77;;
18905;SDS011;9585;51.018;4.282;2023-07-28T09:45:20;2.47;;;0.68;;
18905;SDS011;9585;51.018;4.282;2023-07-28T09:47:50;2.30;;;0.60;;
18905;SDS011;9585;51.018;4.282;2023-07-28T09:50:28;0.50;;;0.50;;
18905;SDS011;9585;51.018;4.282;2023-07-28T09:53:03;2.10;;;0.70;;
18905;SDS011;9585;51.018;4.282;2023-07-28T09:55:40;0.60;;;0.40;;
18905;SDS011;9585;51.018;4.282;2023-07-28T09:58:17;0.43;;;0.40;;
18905;SDS011;9585;51.018;4.282;2023-07-28T10:00:47;1.02;;;0.60;;
18905;SDS011;9585;51.018;4.282;2023-07-28T10:03:22;0.80;;;0.40;;
18905;SDS011;9585;51.018;4.282;2023-07-28T10:05:51;0.65;;;0.50;;
18905;SDS011;9585;51.018;4.282;2023-07-28T10:08:22;0.65;;;0.60;;
18905;SDS011;9585;51.018;4.282;2023-07-28T10:10:58;0.40;;;0.35;;
18905;SDS011;9585;51.018;4.282;2023-07-28T10:13:33;0.82;;;0.50;;
18905;SDS011;9585;51.018;4.282;2023-07-28T10:16:13;0.93;;;0.40;;
18905;SDS011;9585;51.018;4.282;2023-07-28T10:19:04;1.02;;;0.60;;
18905;SDS011;9585;51.018;4.282;2023-07-28T10:21:32;0.80;;;0.60;;
18905;SDS011;9585;51.018;4.282;2023-07-28T10:24:11;1.42;;;0.50;;
18905;SDS011;9585;51.018;4.282;2023-07-28T10:26:43;0.88;;;0.68;;
18905;SDS011;9585;51.018;4.282;2023-07-28T10:29:12;0.75;;;0.45;;
18905;SDS011;9585;51.018;4.282;2023-07-28T10:31:49;1.17;;;0.60;;
18905;SDS011;9585;51.018;4.282;2023-07-28T10:34:19;2.65;;;0.70;;
18905;SDS011;9585;51.018;4.282;2023-07-28T10:36:57;1.48;;;0.52;;
18905;SDS011;9585;51.018;4.282;2023-07-28T10:39:27;0.80;;;0.60;;
18905;SDS011;9585;51.018;4.282;2023-07-28T10:42:05;0.85;;;0.65;;
18905;SDS011;9585;51.018;4.282;2023-07-28T10:44:36;0.80;;;0.60;;
18905;SDS011;9585;51.018;4.282;2023-07-28T10:47:07;2.97;;;0.70;;
18905;SDS011;9585;51.018;4.282;2023-07-28T10:49:36;1.27;;;0.80;;
18905;SDS011;9585;51.018;4.282;2023-07-28T10:52:03;0.82;;;0.55;;
18905;SDS011;9585;51.018;4.282;2023-07-28T10:54:34;2.50;;;0.90;;
18905;SDS011;9585;51.018;4.282;2023-07-28T10:57:05;1.38;;;0.70;;
18905;SDS011;9585;51.018;4.282;2023-07-28T10:59:35;1.73;;;0.68;;
18905;SDS011;9585;51.018;4.282;2023-07-28T11:02:03;0.70;;;0.70;;
18905;SDS011;9585;51.018;4.282;2023-07-28T11:04:31;0.60;;;0.55;;
18905;SDS011;9585;51.018;4.282;2023-07-28T11:07:11;0.70;;;0.60;;
18905;SDS011;9585;51.018;4.282;2023-07-28T11:09:48;1.08;;;0.60;;
18905;SDS011;9585;51.018;4.282;2023-07-28T11:12:25;1.30;;;0.75;;
18905;SDS011;9585;51.018;4.282;2023-07-28T11:14:53;0.65;;;0.60;;
18905;SDS011;9585;51.018;4.282;2023-07-28T11:17:23;1.27;;;0.70;;
18905;SDS011;9585;51.018;4.282;2023-07-28T11:19:58;1.20;;;0.63;;
18905;SDS011;9585;51.018;4.282;2023-07-28T11:22:28;2.78;;;0.68;;
18905;SDS011;9585;51.018;4.282;2023-07-28T11:25:05;0.85;;;0.60;;
18905;SDS011;9585;51.018;4.282;2023-07-28T11:27:40;2.05;;;0.52;;
18905;SDS011;9585;51.018;4.282;2023-07-28T11:30:11;1.30;;;0.60;;
18905;SDS011;9585;51.018;4.282;2023-07-28T11:32:42;3.00;;;0.90;;
18905;SDS011;9585;51.018;4.282;2023-07-28T11:35:14;0.60;;;0.60;;
18905;SDS011;9585;51.018;4.282;2023-07-28T11:37:43;0.85;;;0.70;;
18905;SDS011;9585;51.018;4.282;2023-07-28T11:40:13;1.35;;;0.70;;
18905;SDS011;9585;51.018;4.282;2023-07-28T11:42:46;1.58;;;0.70;;
18905;SDS011;9585;51.018;4.282;2023-07-28T11:45:16;1.10;;;0.70;;
18905;SDS011;9585;51.018;4.282;2023-07-28T11:50:29;0.93;;;0.50;;
18905;SDS011;9585;51.018;4.282;2023-07-28T11:53:01;1.60;;;0.60;;
18905;SDS011;9585;51.018;4.282;2023-07-28T11:55:29;0.60;;;0.50;;
18905;SDS011;9585;51.018;4.282;2023-07-28T11:57:59;2.95;;;0.75;;
18905;SDS011;9585;51.018;4.282;2023-07-28T12:00:30;0.90;;;0.68;;
18905;SDS011;9585;51.018;4.282;2023-07-28T12:03:05;0.50;;;0.50;;
18905;SDS011;9585;51.018;4.282;2023-07-28T12:05:36;0.80;;;0.68;;
18905;SDS011;9585;51.018;4.282;2023-07-28T12:08:09;0.60;;;0.60;;
18905;SDS011;9585;51.018;4.282;2023-07-28T12:10:36;1.02;;;0.73;;
18905;SDS011;9585;51.018;4.282;2023-07-28T12:13:23;1.23;;;0.80;;
18905;SDS011;9585;51.018;4.282;2023-07-28T12:15:52;1.55;;;0.80;;
18905;SDS011;9585;51.018;4.282;2023-07-28T12:18:21;1.38;;;0.75;;
18905;SDS011;9585;51.018;4.282;2023-07-28T12:21:01;1.27;;;0.73;;
18905;SDS011;9585;51.018;4.282;2023-07-28T12:23:29;1.52;;;0.88;;
18905;SDS011;9585;51.018;4.282;2023-07-28T12:25:56;1.08;;;0.80;;
18905;SDS011;9585;51.018;4.282;2023-07-28T12:28:27;0.70;;;0.70;;
18905;SDS011;9585;51.018;4.282;2023-07-28T12:30:54;2.97;;;0.90;;
18905;SDS011;9585;51.018;4.282;2023-07-28T12:33:24;1.25;;;0.90;;
18905;SDS011;9585;51.018;4.282;2023-07-28T12:35:53;1.55;;;0.70;;
18905;SDS011;9585;51.018;4.282;2023-07-28T12:38:21;0.77;;;0.60;;
18905;SDS011;9585;51.018;4.282;2023-07-28T12:40:50;1.80;;;0.73;;
18905;SDS011;9585;51.018;4.282;2023-07-28T12:43:20;0.73;;;0.60;;
18905;SDS011;9585;51.018;4.282;2023-07-28T12:45:52;0.73;;;0.60;;
18905;SDS011;9585;51.018;4.282;2023-07-28T12:48:30;1.15;;;0.70;;
18905;SDS011;9585;51.018;4.282;2023-07-28T12:50:58;1.52;;;0.90;;
18905;SDS011;9585;51.018;4.282;2023-07-28T12:53:26;2.97;;;0.80;;
18905;SDS011;9585;51.018;4.282;2023-07-28T12:55:54;1.40;;;0.80;;
18905;SDS011;9585;51.018;4.282;2023-07-28T12:58:25;2.35;;;0.80;;
18905;SDS011;9585;51.018;4.282;2023-07-28T13:00:54;1.20;;;0.73;;
18905;SDS011;9585;51.018;4.282;2023-07-28T13:03:24;1.23;;;0.80;;
18905;SDS011;9585;51.018;4.282;2023-07-28T13:05:56;1.52;;;1.00;;
18905;SDS011;9585;51.018;4.282;2023-07-28T13:08:24;1.00;;;0.80;;
18905;SDS011;9585;51.018;4.282;2023-07-28T13:10:58;1.75;;;0.68;;
18905;SDS011;9585;51.018;4.282;2023-07-28T13:13:28;1.33;;;0.68;;
18905;SDS011;9585;51.018;4.282;2023-07-28T13:15:59;1.63;;;0.80;;
18905;SDS011;9585;51.018;4.282;2023-07-28T13:18:27;1.92;;;0.82;;
18905;SDS011;9585;51.018;4.282;2023-07-28T13:20:56;1.85;;;0.90;;
18905;SDS011;9585;51.018;4.282;2023-07-28T13:23:31;0.80;;;0.75;;
18905;SDS011;9585;51.018;4.282;2023-07-28T13:26:02;1.00;;;0.80;;
18905;SDS011;9585;51.018;4.282;2023-07-28T13:28:36;1.92;;;0.75;;
18905;SDS011;9585;51.018;4.282;2023-07-28T13:31:11;1.92;;;0.90;;
18905;SDS011;9585;51.018;4.282;2023-07-28T13:33:44;1.02;;;0.70;;
18905;SDS011;9585;51.018;4.282;2023-07-28T13:36:19;1.98;;;0.80;;
18905;SDS011;9585;51.018;4.282;2023-07-28T13:38:49;0.70;;;0.70;;
18905;SDS011;9585;51.018;4.282;2023-07-28T13:41:18;1.05;;;0.90;;
18905;SDS011;9585;51.018;4.282;2023-07-28T13:43:47;1.38;;;0.80;;
18905;SDS011;9585;51.018;4.282;2023-07-28T13:46:18;1.00;;;0.73;;
18905;SDS011;9585;51.018;4.282;2023-07-28T13:48:45;1.25;;;0.70;;
18905;SDS011;9585;51.018;4.282;2023-07-28T13:51:14;1.77;;;0.88;;
18905;SDS011;9585;51.018;4.282;2023-07-28T13:53:41;1.10;;;1.00;;
18905;SDS011;9585;51.018;4.282;2023-07-28T13:56:12;1.23;;;0.82;;
18905;SDS011;9585;51.018;4.282;2023-07-28T13:58:40;2.03;;;0.88;;
18905;SDS011;9585;51.018;4.282;2023-07-28T14:01:12;2.72;;;0.80;;
18905;SDS011;9585;51.018;4.282;2023-07-28T14:03:41;1.58;;;1.17;;
18905;SDS011;9585;51.018;4.282;2023-07-28T14:06:09;1.33;;;0.80;;
18905;SDS011;9585;51.018;4.282;2023-07-28T14:08:41;1.77;;;1.40;;
18905;SDS011;9585;51.018;4.282;2023-07-28T14:11:10;1.20;;;1.05;;
18905;SDS011;9585;51.018;4.282;2023-07-28T14:13:42;2.47;;;1.00;;
18905;SDS011;9585;51.018;4.282;2023-07-28T14:16:10;1.38;;;1.10;;
18905;SDS011;9585;51.018;4.282;2023-07-28T14:18:38;1.33;;;1.10;;
18905;SDS011;9585;51.018;4.282;2023-07-28T14:21:12;1.20;;;0.93;;
18905;SDS011;9585;51.018;4.282;2023-07-28T14:23:40;1.20;;;0.80;;
18905;SDS011;9585;51.018;4.282;2023-07-28T14:26:10;1.40;;;1.10;;
18905;SDS011;9585;51.018;4.282;2023-07-28T14:28:38;1.10;;;0.82;;
18905;SDS011;9585;51.018;4.282;2023-07-28T14:31:07;1.10;;;1.00;;
18905;SDS011;9585;51.018;4.282;2023-07-28T14:33:35;1.95;;;1.00;;
18905;SDS011;9585;51.018;4.282;2023-07-28T14:36:07;1.63;;;1.00;;
18905;SDS011;9585;51.018;4.282;2023-07-28T14:38:37;1.50;;;0.95;;
18905;SDS011;9585;51.018;4.282;2023-07-28T14:41:05;1.65;;;1.10;;
18905;SDS011;9585;51.018;4.282;2023-07-28T14:43:34;1.05;;;0.90;;
18905;SDS011;9585;51.018;4.282;2023-07-28T14:46:02;0.95;;;0.90;;
18905;SDS011;9585;51.018;4.282;2023-07-28T14:48:30;1.33;;;1.00;;
18905;SDS011;9585;51.018;4.282;2023-07-28T14:51:00;1.60;;;1.00;;
18905;SDS011;9585;51.018;4.282;2023-07-28T14:53:33;1.60;;;1.10;;
18905;SDS011;9585;51.018;4.282;2023-07-28T14:56:14;1.10;;;1.00;;
18905;SDS011;9585;51.018;4.282;2023-07-28T14:58:46;3.63;;;1.00;;
18905;SDS011;9585;51.018;4.282;2023-07-28T15:01:14;1.48;;;1.10;;
18905;SDS011;9585;51.018;4.282;2023-07-28T15:03:42;1.00;;;0.88;;
18905;SDS011;9585;51.018;4.282;2023-07-28T15:06:10;1.23;;;1.00;;
18905;SDS011;9585;51.018;4.282;2023-07-28T15:08:37;1.67;;;1.10;;
18905;SDS011;9585;51.018;4.282;2023-07-28T15:11:09;2.55;;;1.00;;
18905;SDS011;9585;51.018;4.282;2023-07-28T15:13:37;1.85;;;1.10;;
18905;SDS011;9585;51.018;4.282;2023-07-28T15:16:07;1.55;;;1.00;;
18905;SDS011;9585;51.018;4.282;2023-07-28T15:18:35;1.50;;;1.20;;
18905;SDS011;9585;51.018;4.282;2023-07-28T15:21:03;1.50;;;1.15;;
18905;SDS011;9585;51.018;4.282;2023-07-28T15:23:34;1.33;;;1.00;;
18905;SDS011;9585;51.018;4.282;2023-07-28T15:26:02;1.30;;;1.00;;
18905;SDS011;9585;51.018;4.282;2023-07-28T15:28:38;1.08;;;0.90;;